Time;durP1;ratioP1;P1;durP2;ratioP2;P2;SDS_P1;SDS_P2;PMS_P1;PMS_P2;Temp;Humidity;BMP_temperature;BMP_pressure;BME280_temperature;BME280_humidity;BME280_pressure;Samples;Min_cycle;Max_cycle;Signal;HPM_P1;HPM_P2
2023/08/22 00:00:33;;;;;;;12.17;9.00;;;26.90;70.50;;;;;;5040135;28;20644;-60
2023/08/22 00:03:00;;;;;;;12.10;9.00;;;26.90;70.40;;;;;;5039494;28;20226;-60
2023/08/22 00:05:28;;;;;;;12.77;9.10;;;26.80;70.50;;;;;;5040997;28;20238;-59
2023/08/22 00:07:54;;;;;;;10.30;9.30;;;26.80;70.60;;;;;;5040682;28;20198;-59
2023/08/22 00:10:22;;;;;;;13.90;9.03;;;26.80;70.60;;;;;;5041517;28;20218;-60
2023/08/22 00:12:49;;;;;;;10.17;8.70;;;26.80;70.70;;;;;;5039217;28;20199;-59
2023/08/22 00:15:16;;;;;;;9.83;8.67;;;26.70;70.90;;;;;;5040863;28;20206;-60
2023/08/22 00:17:43;;;;;;;10.90;8.37;;;26.70;71.10;;;;;;5037214;28;20202;-59
2023/08/22 00:20:12;;;;;;;9.40;7.80;;;26.70;71.10;;;;;;5039987;28;20611;-59
2023/08/22 00:22:39;;;;;;;10.30;8.03;;;26.70;71.00;;;;;;5040768;28;20199;-59
2023/08/22 00:25:07;;;;;;;12.30;8.40;;;26.70;71.00;;;;;;5040462;28;20214;-60
2023/08/22 00:27:34;;;;;;;11.27;7.83;;;26.70;71.10;;;;;;5042093;28;20256;-61
2023/08/22 00:30:03;;;;;;;11.13;8.83;;;26.70;71.90;;;;;;5041782;28;20191;-59
2023/08/22 00:32:30;;;;;;;9.43;8.60;;;26.70;71.40;;;;;;5042446;28;20195;-59
2023/08/22 00:34:57;;;;;;;9.20;8.30;;;26.70;71.40;;;;;;5041072;28;20202;-60
2023/08/22 00:37:24;;;;;;;13.53;8.03;;;26.70;71.40;;;;;;5035039;28;20545;-59
2023/08/22 00:39:52;;;;;;;8.87;7.97;;;26.70;71.30;;;;;;5044139;28;20635;-60
2023/08/22 00:42:19;;;;;;;10.00;8.63;;;26.70;71.20;;;;;;5037999;28;20226;-59
2023/08/22 00:44:46;;;;;;;9.10;8.30;;;26.70;71.20;;;;;;5036425;28;20604;-59
2023/08/22 00:47:16;;;;;;;11.30;7.80;;;26.60;71.20;;;;;;5033802;28;20215;-59
2023/08/22 00:49:43;;;;;;;9.37;8.40;;;26.60;71.30;;;;;;5036555;28;20195;-59
2023/08/22 00:52:10;;;;;;;9.17;8.13;;;26.70;71.30;;;;;;5034652;28;20199;-60
2023/08/22 00:54:37;;;;;;;13.10;8.13;;;26.70;71.40;;;;;;5043023;28;20256;-60
2023/08/22 00:57:05;;;;;;;8.63;7.60;;;26.70;71.20;;;;;;5034943;28;20208;-60
2023/08/22 00:59:32;;;;;;;9.20;8.23;;;26.70;71.20;;;;;;5039741;28;20207;-60
2023/08/22 01:01:59;;;;;;;8.37;7.67;;;26.60;71.20;;;;;;5040970;28;20211;-59
2023/08/22 01:04:26;;;;;;;9.00;8.20;;;26.60;71.20;;;;;;5038719;28;20218;-60
2023/08/22 01:07:14;;;;;;;9.47;8.43;;;26.60;71.20;;;;;;5038473;28;20237;-60
2023/08/22 01:09:52;;;;;;;9.33;7.93;;;26.60;71.10;;;;;;5043564;28;20720;-60
2023/08/22 01:12:34;;;;;;;10.77;8.10;;;26.60;71.10;;;;;;5038803;28;20202;-60
2023/08/22 01:15:05;;;;;;;10.33;8.13;;;26.50;71.00;;;;;;5039430;28;20212;-60
2023/08/22 01:17:33;;;;;;;9.50;8.43;;;26.50;71.10;;;;;;5040842;28;20590;-60
2023/08/22 01:20:01;;;;;;;12.80;7.97;;;26.50;71.20;;;;;;5039833;28;20214;-60
2023/08/22 01:22:28;;;;;;;12.20;8.70;;;26.50;71.20;;;;;;5040261;28;20531;-60
2023/08/22 01:24:55;;;;;;;8.80;8.00;;;26.50;71.20;;;;;;5040824;28;20205;-60
2023/08/22 01:27:29;;;;;;;9.60;8.70;;;26.50;71.20;;;;;;5044007;28;20213;-60
2023/08/22 01:30:05;;;;;;;8.50;7.60;;;26.50;71.20;;;;;;5041843;28;20207;-59
2023/08/22 01:32:38;;;;;;;8.67;7.87;;;26.40;71.20;;;;;;5048580;28;20220;-60
2023/08/22 01:35:08;;;;;;;7.97;7.27;;;26.40;71.40;;;;;;5045906;28;20705;-60
2023/08/22 01:37:36;;;;;;;8.80;7.93;;;26.40;71.50;;;;;;5045076;28;20698;-60
2023/08/22 01:40:06;;;;;;;10.40;7.97;;;26.40;71.90;;;;;;5050169;28;20198;-60
2023/08/22 01:42:33;;;;;;;9.00;8.10;;;26.30;72.20;;;;;;5046752;28;20191;-59
2023/08/22 01:45:00;;;;;;;8.37;7.63;;;26.30;71.70;;;;;;5042886;28;20298;-60
2023/08/22 01:47:28;;;;;;;9.10;8.30;;;26.30;71.90;;;;;;5045958;28;20218;-60
2023/08/22 01:49:55;;;;;;;8.40;7.70;;;26.30;72.00;;;;;;5040770;28;20205;-60
2023/08/22 01:52:22;;;;;;;9.90;8.37;;;26.30;72.20;;;;;;5039301;28;20214;-60
2023/08/22 01:54:50;;;;;;;9.87;7.93;;;26.30;72.30;;;;;;5042326;28;20271;-60
2023/08/22 01:57:17;;;;;;;10.63;8.50;;;26.20;72.20;;;;;;5044127;28;20199;-61
2023/08/22 01:59:44;;;;;;;8.70;7.90;;;26.20;72.20;;;;;;5045460;28;20202;-60
2023/08/22 02:02:11;;;;;;;8.90;7.97;;;26.20;72.10;;;;;;5039665;28;20230;-60
2023/08/22 02:04:39;;;;;;;10.20;8.50;;;26.10;72.10;;;;;;5042935;28;20293;-60
2023/08/22 02:07:06;;;;;;;8.50;7.80;;;26.10;72.20;;;;;;5045979;28;20273;-60
2023/08/22 02:09:33;;;;;;;9.80;8.37;;;26.00;72.20;;;;;;5051169;28;20206;-60
2023/08/22 02:11:59;;;;;;;9.37;8.47;;;26.00;72.40;;;;;;5041015;28;20200;-60
2023/08/22 02:14:26;;;;;;;8.70;7.90;;;25.90;72.50;;;;;;5045589;28;20199;-60
2023/08/22 02:16:58;;;;;;;8.97;8.17;;;25.90;72.60;;;;;;5043631;28;20227;-60
2023/08/22 02:19:25;;;;;;;10.43;8.60;;;25.90;72.60;;;;;;5042076;28;20256;-59
2023/08/22 02:21:52;;;;;;;10.23;8.43;;;25.80;72.70;;;;;;5043800;28;20282;-60
2023/08/22 02:24:19;;;;;;;9.33;8.03;;;25.80;72.90;;;;;;5039032;28;20533;-60
2023/08/22 02:26:47;;;;;;;11.03;8.80;;;25.80;73.10;;;;;;5042412;28;20230;-60
2023/08/22 02:29:14;;;;;;;9.90;8.77;;;25.70;73.90;;;;;;5044074;28;20203;-60
2023/08/22 02:31:41;;;;;;;17.67;9.57;;;25.70;73.40;;;;;;5042352;28;20195;-60
2023/08/22 02:34:08;;;;;;;11.37;8.93;;;25.60;73.50;;;;;;5041813;28;20195;-60
2023/08/22 02:36:35;;;;;;;12.20;8.73;;;25.60;73.80;;;;;;5048035;28;20214;-60
2023/08/22 02:39:03;;;;;;;11.57;8.03;;;25.50;74.70;;;;;;5040098;28;20215;-60
2023/08/22 02:41:30;;;;;;;13.13;8.77;;;25.50;74.40;;;;;;5038598;28;20218;-60
2023/08/22 02:43:57;;;;;;;9.07;8.10;;;25.50;74.60;;;;;;5047368;28;20291;-60
2023/08/22 02:46:25;;;;;;;9.13;8.33;;;25.40;74.90;;;;;;5040938;28;20234;-59
2023/08/22 02:48:52;;;;;;;10.87;8.80;;;25.40;75.20;;;;;;5043697;28;20254;-60
2023/08/22 02:51:19;;;;;;;10.27;8.90;;;25.40;75.40;;;;;;5045693;28;20298;-60
2023/08/22 02:53:46;;;;;;;10.10;8.70;;;25.40;75.50;;;;;;5049218;28;20203;-60
2023/08/22 02:56:14;;;;;;;10.97;8.70;;;25.30;75.50;;;;;;5041284;28;20202;-59
2023/08/22 02:58:42;;;;;;;10.57;8.37;;;25.30;75.60;;;;;;5044076;28;20274;-59
2023/08/22 03:01:09;;;;;;;9.80;8.80;;;25.20;75.80;;;;;;5042921;28;20203;-60
2023/08/22 03:03:36;;;;;;;9.97;8.97;;;25.20;76.00;;;;;;5041819;28;20206;-59
2023/08/22 03:06:03;;;;;;;10.20;8.83;;;25.20;76.20;;;;;;5039534;28;20265;-60
2023/08/22 03:08:30;;;;;;;9.50;8.63;;;25.10;76.20;;;;;;5043999;28;20212;-60
2023/08/22 03:11:01;;;;;;;9.57;8.57;;;25.10;76.40;;;;;;5042971;28;20256;-60
2023/08/22 03:13:28;;;;;;;15.73;9.63;;;25.10;76.50;;;;;;5049220;28;20206;-60
2023/08/22 03:15:57;;;;;;;10.90;9.67;;;25.10;76.40;;;;;;5041258;28;20198;-60
2023/08/22 03:18:28;;;;;;;10.07;9.17;;;25.10;76.50;;;;;;5043792;28;20689;-59
2023/08/22 03:20:58;;;;;;;9.33;8.53;;;25.10;76.50;;;;;;5046186;28;20199;-60
2023/08/22 03:23:25;;;;;;;9.70;8.80;;;25.10;76.50;;;;;;5049343;28;20289;-59
2023/08/22 03:26:02;;;;;;;10.77;9.53;;;25.10;76.70;;;;;;5041307;28;20207;-59
2023/08/22 03:28:33;;;;;;;9.47;8.63;;;25.00;76.80;;;;;;5040686;28;20208;-60
2023/08/22 03:31:03;;;;;;;11.13;9.10;;;25.00;76.80;;;;;;5040575;28;20213;-61
2023/08/22 03:33:33;;;;;;;12.77;8.57;;;25.00;77.00;;;;;;5046974;28;20217;-60
2023/08/22 03:36:03;;;;;;;10.40;9.27;;;25.00;77.00;;;;;;5038136;28;20552;-60
2023/08/22 03:38:31;;;;;;;10.43;9.00;;;25.00;77.00;;;;;;5042032;28;20233;-59
2023/08/22 03:40:58;;;;;;;12.50;9.70;;;25.00;77.00;;;;;;5043237;28;20619;-60
2023/08/22 03:43:26;;;;;;;14.83;10.10;;;25.00;77.00;;;;;;5043036;28;20217;-59
2023/08/22 03:45:53;;;;;;;10.17;9.27;;;25.00;77.00;;;;;;5038351;28;20221;-59
2023/08/22 03:48:20;;;;;;;10.20;9.17;;;25.00;77.10;;;;;;5036930;28;20613;-60
2023/08/22 03:50:48;;;;;;;9.60;8.60;;;24.90;77.40;;;;;;5039808;28;20206;-59
2023/08/22 03:53:15;;;;;;;11.20;10.10;;;24.90;77.60;;;;;;5037973;28;20264;-60
2023/08/22 03:55:44;;;;;;;11.07;10.07;;;24.90;77.70;;;;;;5041486;28;20699;-60
2023/08/22 03:58:11;;;;;;;12.00;10.80;;;24.80;77.90;;;;;;5043786;28;20214;-60
2023/08/22 04:00:38;;;;;;;10.20;9.10;;;24.80;78.00;;;;;;5039785;28;20303;-60
2023/08/22 04:03:06;;;;;;;10.87;9.97;;;24.80;78.10;;;;;;5039827;28;20203;-59
2023/08/22 04:05:33;;;;;;;12.00;9.60;;;24.80;78.20;;;;;;5040650;28;20258;-59
2023/08/22 04:08:01;;;;;;;11.07;9.83;;;24.80;78.30;;;;;;5038991;28;20222;-60
2023/08/22 04:10:28;;;;;;;11.00;9.90;;;24.80;78.30;;;;;;5044755;28;20201;-60
2023/08/22 04:12:55;;;;;;;11.27;10.10;;;24.80;78.40;;;;;;5041883;28;20230;-60
2023/08/22 04:15:22;;;;;;;11.70;10.57;;;24.80;78.50;;;;;;5039687;28;20203;-60
2023/08/22 04:17:50;;;;;;;11.90;9.33;;;24.80;78.60;;;;;;5039732;28;20634;-60
2023/08/22 04:20:17;;;;;;;11.80;9.97;;;24.70;78.60;;;;;;5038878;28;20202;-59
2023/08/22 04:22:44;;;;;;;12.27;11.07;;;24.70;78.80;;;;;;5045063;28;20652;-60
2023/08/22 04:25:12;;;;;;;10.80;9.80;;;24.80;78.90;;;;;;5042270;28;20208;-60
2023/08/22 04:27:40;;;;;;;13.27;10.20;;;24.70;79.10;;;;;;5044736;28;20229;-60
2023/08/22 04:30:10;;;;;;;12.77;10.90;;;24.70;79.40;;;;;;5056648;28;20198;-60
2023/08/22 04:32:37;;;;;;;12.63;11.07;;;24.60;79.40;;;;;;5043807;28;20321;-60
2023/08/22 04:35:06;;;;;;;12.13;10.93;;;24.60;79.60;;;;;;5041401;28;20202;-59
2023/08/22 04:37:37;;;;;;;12.23;11.13;;;24.60;79.80;;;;;;5041346;28;20233;-60
2023/08/22 04:40:04;;;;;;;10.97;9.97;;;24.60;80.00;;;;;;5039695;28;20213;-59
2023/08/22 04:42:51;;;;;;;11.73;10.63;;;24.60;80.10;;;;;;5045901;28;20630;-60
2023/08/22 04:45:19;;;;;;;13.03;10.27;;;24.60;80.20;;;;;;5041333;28;20231;-60
2023/08/22 04:47:46;;;;;;;11.87;10.30;;;24.50;80.40;;;;;;5041931;28;20203;-60
2023/08/22 04:50:13;;;;;;;11.43;10.33;;;24.60;80.60;;;;;;5042001;28;20302;-60
2023/08/22 04:52:40;;;;;;;11.20;9.80;;;24.60;80.70;;;;;;5037856;28;20219;-60
2023/08/22 04:55:07;;;;;;;12.77;11.57;;;24.60;80.90;;;;;;5040634;28;20590;-60
2023/08/22 04:57:34;;;;;;;10.83;9.73;;;24.60;81.00;;;;;;5042573;28;20213;-60
2023/08/22 05:00:03;;;;;;;11.60;10.50;;;24.70;81.10;;;;;;5038453;28;20211;-60
2023/08/22 05:02:30;;;;;;;12.27;11.07;;;24.70;81.10;;;;;;5047428;28;20568;-60
2023/08/22 05:04:58;;;;;;;11.83;10.73;;;24.70;81.10;;;;;;5046674;28;20570;-60
2023/08/22 05:07:25;;;;;;;11.70;10.63;;;24.80;81.20;;;;;;5041683;28;20210;-60
2023/08/22 05:09:52;;;;;;;11.63;10.43;;;24.80;81.20;;;;;;5050813;28;20330;-60
2023/08/22 05:12:20;;;;;;;11.70;10.60;;;24.80;81.30;;;;;;5045869;28;20290;-60
2023/08/22 05:14:47;;;;;;;12.07;10.87;;;24.80;81.20;;;;;;5040158;28;20204;-60
2023/08/22 05:17:14;;;;;;;11.77;10.23;;;24.90;81.10;;;;;;5041714;28;20204;-59
2023/08/22 05:19:42;;;;;;;12.43;11.17;;;25.00;81.00;;;;;;5039462;28;20648;-60
2023/08/22 05:22:10;;;;;;;12.00;10.77;;;25.00;80.70;;;;;;5039182;28;20202;-59
2023/08/22 05:24:37;;;;;;;13.17;11.07;;;25.00;80.70;;;;;;5036164;28;20236;-60
2023/08/22 05:27:05;;;;;;;11.63;10.47;;;25.10;80.80;;;;;;5045587;28;20238;-59
2023/08/22 05:29:33;;;;;;;13.47;10.60;;;25.20;80.90;;;;;;5049640;28;20246;-60
2023/08/22 05:32:00;;;;;;;11.47;10.50;;;25.20;80.70;;;;;;5043289;28;20293;-60
2023/08/22 05:34:27;;;;;;;13.57;11.00;;;25.30;80.70;;;;;;5044454;28;20541;-60
2023/08/22 05:36:54;;;;;;;14.20;9.93;;;25.40;80.80;;;;;;5043070;28;20213;-60
2023/08/22 05:39:22;;;;;;;14.20;10.97;;;25.50;80.90;;;;;;5042302;28;20215;-60
2023/08/22 05:41:49;;;;;;;15.17;11.97;;;25.60;80.90;;;;;;5046816;28;20214;-59
2023/08/22 05:44:18;;;;;;;15.83;11.50;;;25.70;80.90;;;;;;5043943;28;20207;-60
2023/08/22 05:46:45;;;;;;;11.17;9.93;;;25.80;80.60;;;;;;5044385;28;20317;-60
2023/08/22 05:49:12;;;;;;;10.10;9.30;;;25.90;80.00;;;;;;5041117;28;20199;-60
2023/08/22 05:51:39;;;;;;;14.07;9.77;;;26.10;79.50;;;;;;5044112;28;20300;-60
2023/08/22 05:54:06;;;;;;;11.80;10.40;;;26.30;78.90;;;;;;5048553;28;20203;-59
2023/08/22 05:56:34;;;;;;;10.27;9.27;;;26.50;78.40;;;;;;5043778;28;20209;-60
2023/08/22 05:59:01;;;;;;;11.60;9.60;;;26.60;77.90;;;;;;5045408;28;20700;-60
2023/08/22 06:01:28;;;;;;;10.83;9.20;;;26.80;77.30;;;;;;5041294;28;20257;-59
2023/08/22 06:03:56;;;;;;;10.10;9.20;;;26.90;77.10;;;;;;5049151;28;20214;-59
2023/08/22 06:06:23;;;;;;;11.10;9.43;;;27.10;76.00;;;;;;5040933;28;20238;-60
2023/08/22 06:08:50;;;;;;;11.00;9.90;;;27.20;75.60;;;;;;5042945;28;20205;-60
2023/08/22 06:11:17;;;;;;;11.93;10.77;;;27.40;75.30;;;;;;5042909;28;20197;-60
2023/08/22 06:13:44;;;;;;;12.80;11.60;;;27.50;74.80;;;;;;5042444;28;20233;-60
2023/08/22 06:16:11;;;;;;;10.23;9.27;;;27.60;74.70;;;;;;5044326;28;20760;-60
2023/08/22 06:18:39;;;;;;;10.80;8.67;;;27.80;74.40;;;;;;5041278;28;20659;-60
2023/08/22 06:21:06;;;;;;;12.10;9.20;;;28.00;73.80;;;;;;5042861;28;20203;-60
2023/08/22 06:23:33;;;;;;;11.00;9.67;;;28.10;73.10;;;;;;5040392;28;20199;-60
2023/08/22 06:26:00;;;;;;;12.97;9.93;;;28.20;72.80;;;;;;5041760;28;20511;-60
2023/08/22 06:28:27;;;;;;;10.87;9.07;;;28.30;72.60;;;;;;5044363;28;20229;-60
2023/08/22 06:30:54;;;;;;;12.60;9.13;;;28.40;72.40;;;;;;5038757;28;20655;-60
2023/08/22 06:33:21;;;;;;;15.07;10.03;;;28.60;72.20;;;;;;5044727;28;20194;-60
2023/08/22 06:35:48;;;;;;;11.33;9.97;;;28.70;71.80;;;;;;5040716;28;20579;-59
2023/08/22 06:38:15;;;;;;;12.87;10.63;;;28.90;71.60;;;;;;5041915;28;20190;-60
2023/08/22 06:40:43;;;;;;;12.07;9.27;;;29.00;71.20;;;;;;5042245;28;20665;-60
2023/08/22 06:43:10;;;;;;;13.27;10.60;;;29.10;70.60;;;;;;5043341;28;20208;-60
2023/08/22 06:45:37;;;;;;;13.47;10.27;;;29.30;70.30;;;;;;5041821;28;20502;-60
2023/08/22 06:48:05;;;;;;;13.33;9.87;;;29.40;69.90;;;;;;5039401;28;20663;-60
2023/08/22 06:50:32;;;;;;;12.07;10.20;;;29.50;69.50;;;;;;5034998;28;20227;-60
2023/08/22 06:52:59;;;;;;;13.73;10.37;;;29.70;69.30;;;;;;5045244;28;20203;-60
2023/08/22 06:55:26;;;;;;;17.80;10.40;;;29.80;68.90;;;;;;5039602;28;20195;-60
2023/08/22 06:57:53;;;;;;;14.27;10.60;;;29.90;68.60;;;;;;5036266;28;20293;-60
2023/08/22 07:00:21;;;;;;;13.43;10.33;;;30.10;68.50;;;;;;5039416;28;20203;-60
2023/08/22 07:02:48;;;;;;;14.20;9.53;;;30.20;68.20;;;;;;5043210;28;20199;-60
2023/08/22 07:05:15;;;;;;;14.33;10.00;;;30.30;67.30;;;;;;5037849;28;20296;-61
2023/08/22 07:07:43;;;;;;;10.47;9.33;;;30.40;67.30;;;;;;5038335;28;20562;-60
2023/08/22 07:10:11;;;;;;;16.80;11.10;;;30.50;66.10;;;;;;5041565;28;20289;-60
2023/08/22 07:12:41;;;;;;;13.23;9.17;;;30.70;65.90;;;;;;5040176;28;20260;-60
2023/08/22 07:15:08;;;;;;;10.70;9.30;;;30.80;65.60;;;;;;5040806;28;20214;-60
2023/08/22 07:17:35;;;;;;;12.17;9.67;;;30.90;65.20;;;;;;5043305;28;20199;-60
2023/08/22 07:20:03;;;;;;;23.23;9.67;;;31.10;64.90;;;;;;5040960;28;20260;-60
2023/08/22 07:22:30;;;;;;;22.93;9.37;;;31.20;64.70;;;;;;5041255;28;20206;-60
2023/08/22 07:24:57;;;;;;;15.63;9.23;;;31.30;64.60;;;;;;5039966;28;20592;-60
2023/08/22 07:27:24;;;;;;;17.30;9.13;;;31.40;64.50;;;;;;5044414;28;20237;-59
2023/08/22 07:29:51;;;;;;;17.47;8.80;;;31.60;63.60;;;;;;5040085;28;20308;-59
2023/08/22 07:32:21;;;;;;;10.37;9.30;;;31.70;63.00;;;;;;5041935;28;20199;-59
2023/08/22 07:34:48;;;;;;;9.90;8.80;;;31.80;62.60;;;;;;5040859;28;20214;-60
2023/08/22 07:37:16;;;;;;;15.30;9.23;;;31.90;62.10;;;;;;5042846;28;20585;-59
2023/08/22 07:39:43;;;;;;;12.17;10.03;;;32.00;62.00;;;;;;5040684;28;20276;-59
2023/08/22 07:42:10;;;;;;;12.83;8.63;;;32.10;61.70;;;;;;5042960;28;20199;-59
2023/08/22 07:44:37;;;;;;;8.97;8.13;;;32.30;61.50;;;;;;5044622;28;20199;-59
2023/08/22 07:47:04;;;;;;;14.60;9.60;;;32.40;61.50;;;;;;5041013;28;20210;-59
2023/08/22 07:49:31;;;;;;;10.37;8.53;;;32.60;60.30;;;;;;5036630;28;20199;-59
2023/08/22 07:51:58;;;;;;;9.30;8.40;;;32.70;59.60;;;;;;5044990;28;20638;-60
2023/08/22 07:54:25;;;;;;;9.63;7.90;;;32.80;58.90;;;;;;5041225;28;20199;-59
2023/08/22 07:56:52;;;;;;;9.23;8.37;;;32.80;58.90;;;;;;5038783;28;20196;-59
2023/08/22 07:59:34;;;;;;;10.37;8.33;;;32.90;59.40;;;;;;5045615;28;20658;-59
2023/08/22 08:02:01;;;;;;;19.30;8.57;;;33.10;58.70;;;;;;5039122;28;20302;-60
2023/08/22 08:04:30;;;;;;;11.53;8.80;;;33.20;58.40;;;;;;5037342;28;20207;-59
2023/08/22 08:06:57;;;;;;;12.13;8.03;;;33.40;58.40;;;;;;5036697;28;20198;-59
2023/08/22 08:09:24;;;;;;;10.00;9.00;;;33.50;58.20;;;;;;5038805;28;20207;-59
2023/08/22 08:12:01;;;;;;;10.47;8.60;;;33.70;58.10;;;;;;5037359;28;20195;-59
2023/08/22 08:14:28;;;;;;;10.90;8.60;;;33.80;57.10;;;;;;5043267;28;20235;-59
2023/08/22 08:16:55;;;;;;;11.10;8.47;;;33.80;56.40;;;;;;5036496;28;20199;-59
2023/08/22 08:19:22;;;;;;;10.40;8.57;;;33.90;56.20;;;;;;5035998;28;20195;-59
2023/08/22 08:21:53;;;;;;;11.93;8.73;;;34.00;56.30;;;;;;5040353;28;20660;-59
2023/08/22 08:24:20;;;;;;;16.50;8.23;;;34.10;56.00;;;;;;5042696;28;20209;-59
2023/08/22 08:26:48;;;;;;;13.33;8.73;;;34.20;55.80;;;;;;5036967;28;20209;-59
2023/08/22 08:29:17;;;;;;;11.50;8.47;;;34.30;55.20;;;;;;5042058;28;20289;-59
2023/08/22 08:31:45;;;;;;;10.70;8.10;;;34.40;54.60;;;;;;5041728;28;20198;-59
2023/08/22 08:34:12;;;;;;;12.87;7.70;;;34.50;54.10;;;;;;5039223;28;20261;-60
2023/08/22 08:36:39;;;;;;;9.10;7.93;;;34.70;54.00;;;;;;5041366;28;20199;-58
2023/08/22 08:39:06;;;;;;;9.63;8.00;;;34.80;53.30;;;;;;5045238;28;20218;-59
2023/08/22 08:41:36;;;;;;;9.55;7.50;;;34.90;53.40;;;;;;5044646;28;20229;-60
2023/08/22 08:44:03;;;;;;;14.00;7.80;;;35.00;53.00;;;;;;5047630;28;20498;-59
2023/08/22 08:46:31;;;;;;;9.80;6.65;;;35.10;52.30;;;;;;5049992;28;20209;-59
2023/08/22 08:48:59;;;;;;;7.90;7.10;;;35.10;52.00;;;;;;5042475;28;20314;-60
2023/08/22 08:51:26;;;;;;;8.80;7.85;;;35.20;51.90;;;;;;5043865;28;20195;-61
2023/08/22 08:53:54;;;;;;;8.73;6.50;;;35.20;51.60;;;;;;5049086;28;20220;-60
2023/08/22 08:56:22;;;;;;;13.20;7.15;;;35.30;51.40;;;;;;5048078;28;20206;-60
2023/08/22 08:58:50;;;;;;;7.93;7.13;;;35.30;51.40;;;;;;5042560;28;20540;-58
2023/08/22 09:01:18;;;;;;;11.82;7.95;;;35.30;50.90;;;;;;5047454;28;20289;-61
2023/08/22 09:03:46;;;;;;;8.60;7.70;;;35.40;50.70;;;;;;5042316;28;20509;-61
2023/08/22 09:06:14;;;;;;;8.27;7.43;;;35.40;50.40;;;;;;5043786;28;20243;-62
2023/08/22 09:09:05;;;;;;;13.52;6.78;;;35.50;50.50;;;;;;5044681;28;20234;-58
2023/08/22 09:11:32;;;;;;;9.50;7.07;;;35.50;50.40;;;;;;5044501;28;20217;-62
2023/08/22 09:13:59;;;;;;;13.02;7.22;;;35.70;50.60;;;;;;5045833;28;20302;-57
2023/08/22 09:16:27;;;;;;;7.15;6.55;;;35.90;50.80;;;;;;5043700;28;20624;-60
2023/08/22 09:19:01;;;;;;;8.77;7.68;;;36.00;50.20;;;;;;5043230;28;20633;-58
2023/08/22 09:21:28;;;;;;;10.25;6.97;;;36.20;50.70;;;;;;5048136;28;20211;-61
2023/08/22 09:24:09;;;;;;;12.60;7.72;;;36.40;49.70;;;;;;5045556;28;20245;-60
2023/08/22 09:26:37;;;;;;;7.63;6.88;;;36.50;49.70;;;;;;5042005;28;20265;-59
2023/08/22 09:29:07;;;;;;;11.00;7.78;;;36.70;49.00;;;;;;5043136;28;20564;-60
2023/08/22 09:31:35;;;;;;;9.82;7.85;;;36.80;48.80;;;;;;5039842;28;20230;-61
2023/08/22 09:34:11;;;;;;;9.43;8.10;;;36.80;48.30;;;;;;5042641;28;20191;-61
2023/08/22 09:36:46;;;;;;;11.25;8.55;;;36.80;48.80;;;;;;5045408;28;20215;-59
2023/08/22 09:39:18;;;;;;;12.43;7.45;;;36.90;48.00;;;;;;5044189;28;20194;-60
2023/08/22 09:41:47;;;;;;;9.07;8.07;;;36.80;47.90;;;;;;5049251;28;20211;-61
2023/08/22 09:44:15;;;;;;;10.82;7.13;;;36.80;48.00;;;;;;5048647;28;20803;-61
2023/08/22 09:46:44;;;;;;;12.70;7.35;;;36.80;48.20;;;;;;5037879;28;20215;-60
2023/08/22 09:49:14;;;;;;;11.68;7.28;;;36.90;48.30;;;;;;5039517;28;20210;-61
2023/08/22 09:51:44;;;;;;;12.07;7.80;;;37.00;48.10;;;;;;5035857;28;20199;-62
2023/08/22 09:54:13;;;;;;;8.63;7.45;;;37.00;47.70;;;;;;5037447;28;20234;-62
2023/08/22 09:56:41;;;;;;;10.15;7.60;;;37.10;47.70;;;;;;5042396;28;20195;-60
2023/08/22 09:59:08;;;;;;;10.65;8.07;;;37.30;48.00;;;;;;5048719;28;20213;-60
2023/08/22 10:01:37;;;;;;;8.75;7.85;;;37.40;47.10;;;;;;5040023;28;20286;-62
2023/08/22 10:04:05;;;;;;;9.45;7.68;;;37.40;46.40;;;;;;5040331;28;20643;-62
2023/08/22 10:06:36;;;;;;;8.93;7.95;;;37.40;46.80;;;;;;5046117;28;20266;-61
2023/08/22 10:09:14;;;;;;;10.68;7.68;;;37.40;46.50;;;;;;5042174;28;20225;-62
2023/08/22 10:11:43;;;;;;;8.45;7.75;;;37.40;47.10;;;;;;5042065;28;20199;-61
2023/08/22 10:14:37;;;;;;;8.43;7.70;;;37.50;46.20;;;;;;5045754;28;20203;-61
2023/08/22 10:17:05;;;;;;;8.57;7.78;;;37.50;46.50;;;;;;5041821;28;20610;-64
2023/08/22 10:19:32;;;;;;;15.95;7.30;;;37.60;46.70;;;;;;5042988;28;20667;-61
2023/08/22 10:22:09;;;;;;;11.93;7.13;;;37.60;47.20;;;;;;5045112;28;20582;-60
2023/08/22 10:24:37;;;;;;;10.98;7.00;;;37.70;46.70;;;;;;5041516;28;20207;-62
2023/08/22 10:27:09;;;;;;;9.93;7.57;;;37.60;46.30;;;;;;5039991;28;20276;-63
2023/08/22 10:29:45;;;;;;;7.65;6.75;;;37.60;46.30;;;;;;5041811;28;20221;-61
2023/08/22 10:32:19;;;;;;;9.23;8.07;;;37.60;45.80;;;;;;5044594;28;20634;-63
2023/08/22 10:34:46;;;;;;;9.48;7.32;;;37.60;45.70;;;;;;5042361;28;20280;-62
2023/08/22 10:37:25;;;;;;;10.05;7.72;;;37.60;46.00;;;;;;5043084;28;20616;-63
2023/08/22 10:39:55;;;;;;;7.63;6.85;;;37.70;46.50;;;;;;5041147;28;20203;-62
2023/08/22 10:42:23;;;;;;;10.55;7.65;;;37.80;45.70;;;;;;5042381;28;20224;-62
2023/08/22 10:44:57;;;;;;;10.85;7.90;;;37.90;45.70;;;;;;5042897;28;20198;-62
2023/08/22 10:47:26;;;;;;;13.80;8.65;;;38.00;45.60;;;;;;5038165;28;20281;-61
2023/08/22 10:49:55;;;;;;;9.55;7.75;;;38.10;46.20;;;;;;5045000;28;20223;-62
2023/08/22 10:52:41;;;;;;;8.45;7.65;;;38.10;45.40;;;;;;5043088;28;20203;-63
2023/08/22 10:55:19;;;;;;;10.60;7.63;;;38.10;46.00;;;;;;5040505;28;20209;-62
2023/08/22 10:57:47;;;;;;;17.27;7.78;;;38.00;45.90;;;;;;5044327;28;20202;-63
2023/08/22 11:00:21;;;;;;;13.13;8.40;;;38.10;45.80;;;;;;5039874;28;20692;-63
2023/08/22 11:02:56;;;;;;;16.02;7.40;;;38.10;46.30;;;;;;5042379;28;20195;-63
2023/08/22 11:05:25;;;;;;;8.15;7.40;;;38.10;46.10;;;;;;5039787;28;20238;-62
2023/08/22 11:07:52;;;;;;;11.23;7.10;;;38.20;45.60;;;;;;5035825;28;20284;-62
2023/08/22 11:10:22;;;;;;;12.50;7.55;;;38.20;45.70;;;;;;5040460;28;20241;-63
2023/08/22 11:12:53;;;;;;;11.35;7.85;;;38.30;45.30;;;;;;5045808;28;20257;-62
2023/08/22 11:15:20;;;;;;;8.50;7.20;;;38.30;45.40;;;;;;5041640;28;20217;-62
2023/08/22 11:17:50;;;;;;;10.20;7.30;;;38.40;45.80;;;;;;5039106;28;20219;-62
2023/08/22 11:20:22;;;;;;;10.02;7.28;;;38.50;45.20;;;;;;5035816;28;20199;-62
2023/08/22 11:22:49;;;;;;;11.18;7.43;;;38.50;44.50;;;;;;5038857;28;20210;-62
2023/08/22 11:25:24;;;;;;;10.50;7.20;;;38.50;44.50;;;;;;5036758;28;20210;-62
2023/08/22 11:27:51;;;;;;;12.07;6.82;;;38.50;44.30;;;;;;5035331;28;20517;-62
2023/08/22 11:30:19;;;;;;;9.68;7.38;;;38.50;44.40;;;;;;5037404;28;20287;-64
2023/08/22 11:32:46;;;;;;;12.98;8.80;;;38.50;45.00;;;;;;5039500;28;20199;-64
2023/08/22 11:35:16;;;;;;;7.60;7.00;;;38.50;44.10;;;;;;5042498;28;20195;-64
2023/08/22 11:37:43;;;;;;;10.32;7.50;;;38.50;44.40;;;;;;5036702;28;20572;-62
2023/08/22 11:40:14;;;;;;;8.40;7.32;;;38.50;44.50;;;;;;5039742;28;20269;-62
2023/08/22 11:42:42;;;;;;;7.70;7.10;;;38.50;44.60;;;;;;5044279;28;20568;-62
2023/08/22 11:45:13;;;;;;;9.13;7.60;;;38.60;44.50;;;;;;5038588;28;20281;-62
2023/08/22 11:47:45;;;;;;;9.32;7.43;;;38.60;44.50;;;;;;5041984;28;20195;-63
2023/08/22 11:50:24;;;;;;;9.07;7.10;;;38.60;44.20;;;;;;5039978;28;20249;-62
2023/08/22 11:52:57;;;;;;;8.82;7.40;;;38.50;44.50;;;;;;5039693;28;20198;-62
2023/08/22 11:55:26;;;;;;;8.73;7.35;;;38.50;44.60;;;;;;5042893;28;20217;-62
2023/08/22 11:57:59;;;;;;;7.30;6.60;;;38.60;44.00;;;;;;5041147;28;20195;-62
2023/08/22 12:00:28;;;;;;;8.18;7.35;;;38.70;43.80;;;;;;5040473;28;20259;-62
2023/08/22 12:02:57;;;;;;;7.53;6.93;;;38.70;43.90;;;;;;5043144;28;20222;-63
2023/08/22 12:05:41;;;;;;;10.98;7.57;;;38.70;44.40;;;;;;5040952;28;20318;-64
2023/08/22 12:08:11;;;;;;;9.02;8.05;;;38.70;44.40;;;;;;5042389;28;20203;-62
2023/08/22 12:10:39;;;;;;;8.68;6.88;;;38.70;43.60;;;;;;5041065;28;20195;-62
2023/08/22 12:13:07;;;;;;;8.07;7.47;;;38.80;43.60;;;;;;5041597;28;20634;-64
2023/08/22 12:15:34;;;;;;;9.80;7.32;;;38.80;43.50;;;;;;5043082;28;20195;-61
2023/08/22 12:18:02;;;;;;;8.55;7.20;;;38.80;43.60;;;;;;5043207;28;20207;-62
2023/08/22 12:20:30;;;;;;;9.43;7.68;;;38.90;43.40;;;;;;5040872;28;20264;-61
2023/08/22 12:22:57;;;;;;;8.70;7.15;;;38.90;43.60;;;;;;5044229;28;20222;-61
2023/08/22 12:25:24;;;;;;;10.10;7.78;;;38.80;43.70;;;;;;5042545;28;20234;-63
2023/08/22 12:27:51;;;;;;;8.85;6.93;;;38.80;43.80;;;;;;5040824;28;20294;-61
2023/08/22 12:30:18;;;;;;;9.82;7.15;;;38.80;44.40;;;;;;5044320;28;20252;-62
2023/08/22 12:32:46;;;;;;;7.93;7.28;;;38.80;44.40;;;;;;5044382;28;20529;-62
2023/08/22 12:35:13;;;;;;;13.27;7.50;;;38.90;44.00;;;;;;5040697;28;20274;-63
2023/08/22 12:37:40;;;;;;;7.43;6.72;;;38.80;43.90;;;;;;5038682;28;20546;-62
2023/08/22 12:40:10;;;;;;;11.98;7.20;;;38.80;43.30;;;;;;5040673;28;20260;-62
2023/08/22 12:42:41;;;;;;;7.18;6.57;;;38.80;43.10;;;;;;5039776;28;20226;-63
2023/08/22 12:45:09;;;;;;;12.13;6.80;;;38.70;43.40;;;;;;5037386;28;20203;-63